createdAt,value
2017-07-22T00:00:41.659Z,6.47
2017-07-22T00:03:09.112Z,8.10
2017-07-22T00:05:36.575Z,11.83
2017-07-22T00:08:04.133Z,10.27
2017-07-22T00:10:31.611Z,9.80
2017-07-22T00:12:59.874Z,11.97
2017-07-22T00:15:28.093Z,8.87
2017-07-22T00:17:55.563Z,9.03
2017-07-22T00:20:23.023Z,10.83
2017-07-22T00:22:50.513Z,10.07
2017-07-22T00:25:18.786Z,11.53
2017-07-22T00:27:46.258Z,11.73
2017-07-22T00:30:14.484Z,11.53
2017-07-22T00:32:41.950Z,12.67
2017-07-22T00:35:09.397Z,9.37
2017-07-22T00:37:36.877Z,9.03
2017-07-22T00:40:04.321Z,7.90
2017-07-22T00:42:31.782Z,11.50
2017-07-22T00:44:59.245Z,9.57
2017-07-22T00:47:26.689Z,8.67
2017-07-22T00:49:54.253Z,10.33
2017-07-22T00:52:21.704Z,10.93
2017-07-22T00:54:49.165Z,9.83
2017-07-22T00:57:16.622Z,10.20
2017-07-22T00:59:44.085Z,9.73
2017-07-22T01:02:11.546Z,8.63
2017-07-22T01:04:39.000Z,9.60
2017-07-22T01:07:06.563Z,9.30
2017-07-22T01:09:34.018Z,17.43
2017-07-22T01:12:01.478Z,10.27
2017-07-22T01:14:29.037Z,9.37
2017-07-22T01:16:56.498Z,10.37
2017-07-22T01:19:23.946Z,9.20
2017-07-22T01:21:51.410Z,10.23
2017-07-22T01:24:18.860Z,8.97
2017-07-22T01:26:46.316Z,11.23
2017-07-22T01:29:13.866Z,9.37
2017-07-22T01:31:41.325Z,7.67
2017-07-22T01:34:08.769Z,9.43
2017-07-22T01:36:36.234Z,11.20
2017-07-22T01:39:03.694Z,10.20
2017-07-22T01:41:31.782Z,13.60
2017-07-22T01:43:59.338Z,14.60
2017-07-22T01:46:26.792Z,20.40
2017-07-22T01:48:54.256Z,19.50
2017-07-22T01:51:21.721Z,17.77
2017-07-22T01:53:49.946Z,21.13
2017-07-22T01:56:17.413Z,22.37
2017-07-22T01:58:44.882Z,21.33
2017-07-22T02:01:12.350Z,22.80
2017-07-22T02:03:39.835Z,25.67
2017-07-22T02:06:07.292Z,27.90
2017-07-22T02:08:34.750Z,42.17
2017-07-22T02:11:02.264Z,29.47
2017-07-22T02:13:29.726Z,31.33
2017-07-22T02:15:57.197Z,23.63
2017-07-22T02:18:24.662Z,17.80
2017-07-22T02:20:52.887Z,25.60
2017-07-22T02:23:20.351Z,27.37
2017-07-22T02:25:47.925Z,35.20
2017-07-22T02:28:15.486Z,38.03
2017-07-22T02:30:42.970Z,41.07
2017-07-22T02:33:11.213Z,32.87
2017-07-22T02:35:38.676Z,34.97
2017-07-22T02:38:06.145Z,36.93
2017-07-22T02:40:34.373Z,29.60
2017-07-22T02:43:01.870Z,33.40
2017-07-22T02:45:29.331Z,21.93
2017-07-22T02:47:56.794Z,27.77
2017-07-22T02:50:25.059Z,23.47
2017-07-22T02:52:52.605Z,33.80
2017-07-22T02:55:20.176Z,28.43
2017-07-22T02:57:47.642Z,28.83
2017-07-22T03:00:15.866Z,24.17
2017-07-22T03:02:43.340Z,34.57
2017-07-22T03:05:10.816Z,32.47
2017-07-22T03:07:38.261Z,32.87
2017-07-22T03:10:05.730Z,37.50
2017-07-22T03:12:33.199Z,34.90
2017-07-22T03:15:00.657Z,31.90
2017-07-22T03:17:28.883Z,26.00
2017-07-22T03:19:56.354Z,26.87
2017-07-22T03:22:23.921Z,29.37
2017-07-22T03:24:51.388Z,27.23
2017-07-22T03:27:18.851Z,25.67
2017-07-22T03:29:46.307Z,22.50
2017-07-22T03:32:13.860Z,20.73
2017-07-22T03:34:41.345Z,21.10
2017-07-22T03:37:08.802Z,18.40
2017-07-22T03:39:36.261Z,22.07
2017-07-22T03:42:03.783Z,20.77
2017-07-22T03:44:31.228Z,25.77
2017-07-22T03:46:58.697Z,21.67
2017-07-22T03:49:26.249Z,16.50
2017-07-22T03:51:53.807Z,18.43
2017-07-22T03:54:21.365Z,22.83
2017-07-22T03:56:48.930Z,21.97
2017-07-22T03:59:16.381Z,27.10
2017-07-22T04:01:43.854Z,30.27
2017-07-22T04:04:11.305Z,29.70
2017-07-22T04:06:38.757Z,29.87
2017-07-22T04:09:06.231Z,30.23
2017-07-22T04:11:34.458Z,32.93
2017-07-22T04:14:01.941Z,37.40
2017-07-22T04:16:29.406Z,31.63
2017-07-22T04:18:56.962Z,29.03
2017-07-22T04:21:24.426Z,30.50
2017-07-22T04:23:51.892Z,29.37
2017-07-22T04:26:20.136Z,34.90
2017-07-22T04:28:47.604Z,39.00
2017-07-22T04:31:15.159Z,39.67
2017-07-22T04:33:42.645Z,34.87
2017-07-22T04:36:10.178Z,39.13
2017-07-22T04:38:37.637Z,38.57
2017-07-22T04:41:05.110Z,39.07
2017-07-22T04:43:33.365Z,40.13
2017-07-22T04:46:00.837Z,39.70
2017-07-22T04:48:29.068Z,37.27
2017-07-22T04:50:56.547Z,39.20
2017-07-22T04:53:23.995Z,32.37
2017-07-22T04:55:51.461Z,36.73
2017-07-22T04:58:18.923Z,38.60
2017-07-22T05:00:46.381Z,35.13
2017-07-22T05:03:13.935Z,32.33
2017-07-22T05:05:41.405Z,29.60
2017-07-22T05:08:09.628Z,26.83
2017-07-22T05:10:37.120Z,26.77
2017-07-22T05:13:04.580Z,21.83
2017-07-22T05:15:32.038Z,27.40
2017-07-22T05:17:59.506Z,22.50
2017-07-22T05:20:27.733Z,29.07
2017-07-22T05:22:55.206Z,22.37
2017-07-22T05:25:22.661Z,19.33
2017-07-22T05:27:50.142Z,20.90
2017-07-22T05:30:17.684Z,21.30
2017-07-22T05:32:45.161Z,14.60
2017-07-22T05:35:12.617Z,14.83
2017-07-22T05:37:40.075Z,13.53
2017-07-22T05:40:07.616Z,8.80
2017-07-22T05:42:35.079Z,10.97
2017-07-22T05:45:02.636Z,6.37
2017-07-22T05:47:30.080Z,6.80
2017-07-22T05:49:57.533Z,8.40
2017-07-22T05:52:24.978Z,5.47
2017-07-22T05:54:52.527Z,4.93
2017-07-22T05:57:20.019Z,9.47
2017-07-22T05:59:47.452Z,6.97
2017-07-22T06:02:14.912Z,6.97
2017-07-22T06:04:42.354Z,6.83
2017-07-22T06:07:09.813Z,6.07
2017-07-22T06:09:37.258Z,6.37
2017-07-22T06:12:04.724Z,8.63
2017-07-22T06:14:32.213Z,8.30
2017-07-22T06:16:59.676Z,5.70
2017-07-22T06:19:27.129Z,6.40
2017-07-22T06:21:54.596Z,4.97
2017-07-22T06:24:22.064Z,5.63
2017-07-22T06:26:50.307Z,4.97
2017-07-22T06:29:17.759Z,5.20
2017-07-22T06:31:45.206Z,4.90
2017-07-22T06:34:12.694Z,5.30
2017-07-22T06:36:41.146Z,4.37
2017-07-22T06:39:09.642Z,5.17
2017-07-22T06:41:37.088Z,5.27
2017-07-22T06:44:04.549Z,5.23
2017-07-22T06:46:32.018Z,5.20
2017-07-22T06:48:59.471Z,8.27
2017-07-22T06:51:26.926Z,6.60
2017-07-22T06:53:54.477Z,9.87
2017-07-22T06:56:21.942Z,7.03
2017-07-22T06:58:49.398Z,8.70
2017-07-22T07:01:16.845Z,7.10
2017-07-22T07:03:44.313Z,7.40
2017-07-22T07:06:11.768Z,9.60
2017-07-22T07:08:39.231Z,6.53
2017-07-22T07:11:06.685Z,5.37
2017-07-22T07:13:34.156Z,5.50
2017-07-22T07:16:01.614Z,5.77
2017-07-22T07:18:29.062Z,4.80
2017-07-22T07:20:56.550Z,4.97
2017-07-22T07:23:24.753Z,4.57
2017-07-22T07:26:30.670Z,5.17
2017-07-22T07:29:03.167Z,5.97
2017-07-22T07:31:30.666Z,4.33
2017-07-22T07:33:58.182Z,5.40
2017-07-22T07:36:25.662Z,6.27
2017-07-22T07:38:53.106Z,4.73
2017-07-22T07:41:24.573Z,4.67
2017-07-22T07:43:52.064Z,4.07
2017-07-22T07:46:22.432Z,4.43
2017-07-22T07:48:50.887Z,6.17
2017-07-22T07:51:19.110Z,4.83
2017-07-22T07:53:46.661Z,4.60
2017-07-22T07:56:16.587Z,5.17
2017-07-22T07:58:45.025Z,4.60
2017-07-22T08:01:12.534Z,4.47
2017-07-22T08:03:40.070Z,4.40
2017-07-22T08:06:07.557Z,4.97
2017-07-22T08:08:35.443Z,3.90
2017-07-22T08:11:02.917Z,3.70
2017-07-22T08:13:37.022Z,4.73
2017-07-22T08:16:05.285Z,4.27
2017-07-22T08:18:32.797Z,4.13
2017-07-22T08:21:00.268Z,4.20
2017-07-22T08:23:27.730Z,3.10
2017-07-22T08:25:55.254Z,3.40
2017-07-22T08:28:22.763Z,5.47
2017-07-22T08:30:50.284Z,4.10
2017-07-22T08:33:17.863Z,4.77
2017-07-22T08:35:45.333Z,6.23
2017-07-22T08:38:12.831Z,4.27
2017-07-22T08:40:40.387Z,2.97
2017-07-22T08:43:07.906Z,3.17
2017-07-22T08:45:36.200Z,2.43
2017-07-22T08:48:03.762Z,3.00
2017-07-22T08:50:31.289Z,2.97
2017-07-22T08:52:58.737Z,2.70
2017-07-22T08:55:27.806Z,3.47
2017-07-22T08:57:55.238Z,4.03
2017-07-22T09:00:23.470Z,3.43
2017-07-22T09:02:50.913Z,2.83
2017-07-22T09:05:18.358Z,2.97
2017-07-22T09:07:45.856Z,3.67
2017-07-22T09:10:13.306Z,3.40
2017-07-22T09:12:40.767Z,3.40
2017-07-22T09:15:08.221Z,2.97
2017-07-22T09:17:35.739Z,3.20
2017-07-22T09:20:03.238Z,2.80
2017-07-22T09:22:30.711Z,4.30
2017-07-22T09:24:58.931Z,2.70
2017-07-22T09:27:26.390Z,3.10
2017-07-22T09:29:53.881Z,3.00
2017-07-22T09:32:21.372Z,4.77
2017-07-22T09:34:49.584Z,3.87
2017-07-22T09:37:17.033Z,3.10
2017-07-22T09:39:44.527Z,3.20
2017-07-22T09:42:11.974Z,4.03
2017-07-22T09:44:39.429Z,3.20
2017-07-22T09:47:06.890Z,4.83
2017-07-22T09:49:34.340Z,2.73
2017-07-22T09:52:01.782Z,3.53
2017-07-22T09:54:29.242Z,3.07
2017-07-22T09:56:56.698Z,3.60
2017-07-22T09:59:24.153Z,3.57
2017-07-22T10:01:51.610Z,3.63
2017-07-22T10:04:19.078Z,2.93
2017-07-22T10:06:46.538Z,3.07
2017-07-22T10:09:14.101Z,2.60
2017-07-22T10:11:41.565Z,3.80
2017-07-22T10:14:09.017Z,3.57
2017-07-22T10:16:36.465Z,4.13
2017-07-22T10:19:03.910Z,3.00
2017-07-22T10:21:31.374Z,4.60
2017-07-22T10:23:58.826Z,4.70
2017-07-22T10:26:26.282Z,5.93
2017-07-22T10:28:53.734Z,3.70
2017-07-22T10:31:21.210Z,3.57
2017-07-22T10:33:48.838Z,3.70
2017-07-22T10:36:16.277Z,3.67
2017-07-22T10:38:43.783Z,3.60
2017-07-22T10:41:11.245Z,2.97
2017-07-22T10:43:38.690Z,5.40
2017-07-22T10:46:06.249Z,4.80
2017-07-22T10:48:33.715Z,4.03
2017-07-22T10:51:01.570Z,3.03
2017-07-22T10:53:29.135Z,4.57
2017-07-22T10:55:56.579Z,7.37
2017-07-22T10:58:24.037Z,4.60
2017-07-22T11:00:51.483Z,4.60
2017-07-22T11:03:18.937Z,4.33
2017-07-22T11:05:46.413Z,7.67
2017-07-22T11:08:13.870Z,9.87
2017-07-22T11:10:41.320Z,7.73
2017-07-22T11:13:08.891Z,4.20
2017-07-22T11:15:36.346Z,5.50
2017-07-22T11:18:03.801Z,4.73
2017-07-22T11:20:36.894Z,8.30
2017-07-22T11:23:05.134Z,5.93
2017-07-22T11:25:32.591Z,6.73
2017-07-22T11:28:00.041Z,6.10
2017-07-22T11:30:27.536Z,5.60
2017-07-22T11:32:55.081Z,5.60
2017-07-22T11:35:22.646Z,4.77
2017-07-22T11:37:50.098Z,6.10
2017-07-22T11:40:17.649Z,8.07
2017-07-22T11:42:45.097Z,8.33
2017-07-22T11:45:12.562Z,5.53
2017-07-22T11:47:40.009Z,4.13
2017-07-22T11:50:07.453Z,6.90
2017-07-22T11:52:34.908Z,4.00
2017-07-22T11:55:02.366Z,5.10
2017-07-22T11:57:29.822Z,5.77
2017-07-22T11:59:57.314Z,3.80
2017-07-22T12:02:24.916Z,4.70
2017-07-22T12:04:53.159Z,5.40
2017-07-22T12:07:20.654Z,3.47
2017-07-22T12:09:48.157Z,5.17
2017-07-22T12:12:15.609Z,5.80
2017-07-22T12:14:43.061Z,5.57
2017-07-22T12:17:10.526Z,4.83
2017-07-22T12:19:37.969Z,3.73
2017-07-22T12:22:05.421Z,3.53
2017-07-22T12:24:32.873Z,4.07
2017-07-22T12:27:00.318Z,3.20
2017-07-22T12:29:27.778Z,4.00
2017-07-22T12:31:55.234Z,3.87
2017-07-22T12:34:22.695Z,2.73
2017-07-22T12:36:50.143Z,3.90
2017-07-22T12:39:17.629Z,3.07
2017-07-22T12:41:45.085Z,2.83
2017-07-22T12:44:12.542Z,3.83
2017-07-22T12:46:40.001Z,4.13
2017-07-22T12:49:07.453Z,3.33
2017-07-22T12:51:34.903Z,3.07
2017-07-22T12:54:02.478Z,3.20
2017-07-22T12:56:29.924Z,3.00
2017-07-22T12:58:57.498Z,2.73
2017-07-22T13:01:24.952Z,3.90
2017-07-22T13:03:52.514Z,3.50
2017-07-22T13:06:19.977Z,3.87
2017-07-22T13:08:47.424Z,3.27
2017-07-22T13:11:14.973Z,3.13
2017-07-22T13:13:44.081Z,3.70
2017-07-22T13:16:14.523Z,3.00
2017-07-22T13:18:42.750Z,4.57
2017-07-22T13:21:10.213Z,2.90
2017-07-22T13:23:37.675Z,2.70
2017-07-22T13:26:05.250Z,3.30
2017-07-22T13:28:32.704Z,5.60
2017-07-22T13:31:00.170Z,5.90
2017-07-22T13:33:27.634Z,2.57
2017-07-22T13:35:55.876Z,2.10
2017-07-22T13:38:23.350Z,2.70
2017-07-22T13:40:50.818Z,3.10
2017-07-22T13:43:18.269Z,3.03
2017-07-22T13:45:45.722Z,2.90
2017-07-22T13:48:13.308Z,3.47
2017-07-22T13:50:41.549Z,2.93
2017-07-22T13:53:09.005Z,3.60
2017-07-22T13:55:36.514Z,3.07
2017-07-22T13:58:04.010Z,4.30
2017-07-22T14:00:31.454Z,3.60
2017-07-22T14:02:58.906Z,3.90
2017-07-22T14:05:26.366Z,3.20
2017-07-22T14:07:53.816Z,2.67
2017-07-22T14:10:21.326Z,3.90
2017-07-22T14:12:49.536Z,3.57
2017-07-22T14:15:16.996Z,2.87
2017-07-22T14:17:44.478Z,2.90
2017-07-22T14:20:11.942Z,2.73
2017-07-22T14:22:39.384Z,2.60
2017-07-22T14:25:06.847Z,3.13
2017-07-22T14:27:34.299Z,2.50
2017-07-22T14:30:01.857Z,2.80
2017-07-22T14:32:29.337Z,2.77
2017-07-22T14:34:56.815Z,5.73
2017-07-22T14:37:25.063Z,4.03
2017-07-22T14:39:53.325Z,3.43
2017-07-22T14:42:20.782Z,3.60
2017-07-22T14:44:48.230Z,2.73
2017-07-22T14:47:16.049Z,3.80
2017-07-22T14:49:43.569Z,2.73
2017-07-22T14:52:11.117Z,3.10
2017-07-22T14:54:38.639Z,4.03
2017-07-22T14:57:06.110Z,4.83
2017-07-22T14:59:33.594Z,6.20
2017-07-22T15:02:01.045Z,2.93
2017-07-22T15:04:28.497Z,2.63
2017-07-22T15:06:55.949Z,3.03
2017-07-22T15:09:23.490Z,3.93
2017-07-22T15:11:51.049Z,3.00
2017-07-22T15:14:18.774Z,5.30
2017-07-22T15:16:46.261Z,3.30
2017-07-22T15:19:13.723Z,3.00
2017-07-22T15:21:41.177Z,3.10
2017-07-22T15:24:09.555Z,2.90
2017-07-22T15:26:37.037Z,5.23
2017-07-22T15:29:04.597Z,2.83
2017-07-22T15:31:32.050Z,2.63
2017-07-22T15:33:59.489Z,3.43
2017-07-22T15:36:26.953Z,2.20
2017-07-22T15:38:54.418Z,3.17
2017-07-22T15:41:21.883Z,3.13
2017-07-22T15:43:49.324Z,3.00
2017-07-22T15:46:16.803Z,2.97
2017-07-22T15:48:44.353Z,3.57
2017-07-22T15:51:11.809Z,3.10
2017-07-22T15:53:39.253Z,3.10
2017-07-22T15:56:06.711Z,4.13
2017-07-22T15:58:34.167Z,3.33
2017-07-22T16:01:01.635Z,3.30
2017-07-22T16:03:29.098Z,3.00
2017-07-22T16:05:57.321Z,3.10
2017-07-22T16:08:24.759Z,2.87
2017-07-22T16:10:52.276Z,3.40
2017-07-22T16:13:19.734Z,5.30
2017-07-22T16:15:47.194Z,3.60
2017-07-22T16:18:14.650Z,4.90
2017-07-22T16:20:42.094Z,3.87
2017-07-22T16:23:09.571Z,3.23
2017-07-22T16:25:37.025Z,3.60
2017-07-22T16:28:04.481Z,3.20
2017-07-22T16:30:31.934Z,4.27
2017-07-22T16:32:59.476Z,2.90
2017-07-22T16:35:27.036Z,3.03
2017-07-22T16:37:54.479Z,3.03
2017-07-22T16:40:21.949Z,3.13
2017-07-22T16:42:49.389Z,3.00
2017-07-22T16:45:16.870Z,2.87
2017-07-22T16:47:44.322Z,4.20
2017-07-22T16:50:11.769Z,3.47
2017-07-22T16:52:39.213Z,3.30
2017-07-22T16:55:06.698Z,5.03
2017-07-22T16:57:34.150Z,2.77
2017-07-22T17:00:01.622Z,3.20
2017-07-22T17:02:29.065Z,3.63
2017-07-22T17:04:56.619Z,3.20
2017-07-22T17:07:24.064Z,3.47
2017-07-22T17:09:51.523Z,4.33
2017-07-22T17:12:18.966Z,3.20
2017-07-22T17:14:46.425Z,3.33
2017-07-22T17:17:13.881Z,3.10
2017-07-22T17:19:41.349Z,4.03
2017-07-22T17:22:08.805Z,3.17
2017-07-22T17:24:36.258Z,3.60
2017-07-22T17:27:03.714Z,3.63
2017-07-22T17:29:31.160Z,3.90
2017-07-22T17:31:58.629Z,4.37
2017-07-22T17:34:26.189Z,3.30
2017-07-22T17:36:53.664Z,5.10
2017-07-22T17:39:21.111Z,3.40
2017-07-22T17:41:48.566Z,3.23
2017-07-22T17:44:16.040Z,3.57
2017-07-22T17:46:43.580Z,3.20
2017-07-22T17:49:11.145Z,5.50
2017-07-22T17:51:38.594Z,3.80
2017-07-22T17:54:06.045Z,3.27
2017-07-22T17:56:33.493Z,3.53
2017-07-22T17:59:00.953Z,4.03
2017-07-22T18:01:28.398Z,6.40
2017-07-22T18:03:55.853Z,3.73
2017-07-22T18:06:23.309Z,3.93
2017-07-22T18:08:50.754Z,3.30
2017-07-22T18:11:18.214Z,3.10
2017-07-22T18:13:45.664Z,4.97
2017-07-22T18:16:13.157Z,3.23
2017-07-22T18:18:40.610Z,4.20
2017-07-22T18:21:08.073Z,3.20
2017-07-22T18:23:35.617Z,3.03
2017-07-22T18:26:04.107Z,3.00
2017-07-22T18:28:31.553Z,3.87
2017-07-22T18:30:59.006Z,3.17
2017-07-22T18:33:26.455Z,5.50
2017-07-22T18:35:53.910Z,3.20
2017-07-22T18:38:21.361Z,3.80
2017-07-22T18:40:48.852Z,3.07
2017-07-22T18:43:16.403Z,4.60
2017-07-22T18:45:43.847Z,3.60
2017-07-22T18:48:11.297Z,3.47
2017-07-22T18:50:38.746Z,9.40
2017-07-22T18:53:06.204Z,4.00
2017-07-22T18:55:33.678Z,4.00
2017-07-22T18:58:01.132Z,4.70
2017-07-22T19:00:28.581Z,4.57
2017-07-22T19:02:56.159Z,4.27
2017-07-22T19:05:23.601Z,4.70
2017-07-22T19:07:51.054Z,5.70
2017-07-22T19:10:19.510Z,5.87
2017-07-22T19:12:46.953Z,5.70
2017-07-22T19:15:14.424Z,5.40
2017-07-22T19:17:41.884Z,4.40
2017-07-22T19:20:09.337Z,4.33
2017-07-22T19:22:36.796Z,5.30
2017-07-22T19:25:04.253Z,4.83
2017-07-22T19:27:31.726Z,5.43
2017-07-22T19:29:59.289Z,5.10
2017-07-22T19:32:26.757Z,5.20
2017-07-22T19:34:54.200Z,4.73
2017-07-22T19:37:21.659Z,4.63
2017-07-22T19:39:49.114Z,7.07
2017-07-22T19:42:16.586Z,4.57
2017-07-22T19:44:44.029Z,5.50
2017-07-22T19:47:11.500Z,5.43
2017-07-22T19:49:38.959Z,6.73
2017-07-22T19:52:06.411Z,5.27
2017-07-22T19:54:33.871Z,5.80
2017-07-22T19:57:02.842Z,6.57
2017-07-22T19:59:30.293Z,7.23
2017-07-22T20:01:57.758Z,6.27
2017-07-22T20:04:25.226Z,7.70
2017-07-22T20:06:52.788Z,6.67
2017-07-22T20:09:20.245Z,6.87
2017-07-22T20:11:49.204Z,5.93
2017-07-22T20:14:16.680Z,7.50
2017-07-22T20:16:44.173Z,6.60
2017-07-22T20:19:12.401Z,7.70
2017-07-22T20:21:39.890Z,6.77
2017-07-22T20:24:08.123Z,8.43
2017-07-22T20:26:35.574Z,6.70
2017-07-22T20:29:03.063Z,5.57
2017-07-22T20:31:30.525Z,6.80
2017-07-22T20:33:57.977Z,9.50
2017-07-22T20:36:25.538Z,6.80
2017-07-22T20:38:52.999Z,6.27
2017-07-22T20:41:20.446Z,7.27
2017-07-22T20:43:48.912Z,6.57
2017-07-22T20:46:16.365Z,6.50
2017-07-22T20:48:43.842Z,5.90
2017-07-22T20:51:11.313Z,6.97
2017-07-22T20:53:40.178Z,6.17
2017-07-22T20:56:07.641Z,7.27
2017-07-22T20:58:35.188Z,7.23
2017-07-22T21:01:02.632Z,7.03
2017-07-22T21:03:30.096Z,7.80
2017-07-22T21:05:57.573Z,5.13
2017-07-22T21:08:25.033Z,5.73
2017-07-22T21:10:52.481Z,4.43
2017-07-22T21:13:19.945Z,4.13
2017-07-22T21:15:47.402Z,3.37
2017-07-22T21:18:14.954Z,2.70
2017-07-22T21:20:42.405Z,5.50
2017-07-22T21:23:09.855Z,4.10
2017-07-22T21:25:37.308Z,2.83
2017-07-22T21:28:04.782Z,4.03
2017-07-22T21:30:32.243Z,3.10
2017-07-22T21:32:59.692Z,3.27
2017-07-22T21:35:27.152Z,3.10
2017-07-22T21:37:54.597Z,3.30
2017-07-22T21:40:22.054Z,3.07
2017-07-22T21:42:49.509Z,4.63
2017-07-22T21:45:16.977Z,2.87
2017-07-22T21:47:44.427Z,3.43
2017-07-22T21:50:11.873Z,2.73
2017-07-22T21:52:39.442Z,3.90
2017-07-22T21:55:06.990Z,3.40
2017-07-22T21:57:34.554Z,3.23
2017-07-22T22:02:37.938Z,5.20
2017-07-22T22:05:05.382Z,3.10
2017-07-22T22:07:32.870Z,5.33
2017-07-22T22:10:00.318Z,3.90
2017-07-22T22:12:27.757Z,3.37
2017-07-22T22:14:55.218Z,3.80
2017-07-22T22:17:22.707Z,3.90
2017-07-22T22:19:50.167Z,3.43
2017-07-22T22:22:17.612Z,3.83
2017-07-22T22:24:45.175Z,3.93
2017-07-22T22:27:12.738Z,3.50
2017-07-22T22:29:40.197Z,3.70
2017-07-22T22:32:07.636Z,3.77
2017-07-22T22:34:35.082Z,4.27
2017-07-22T22:37:02.536Z,3.87
2017-07-22T22:39:29.987Z,4.00
2017-07-22T22:41:57.441Z,4.10
2017-07-22T22:44:24.885Z,4.13
2017-07-22T22:46:52.345Z,4.00
2017-07-22T22:49:19.842Z,3.17
2017-07-22T22:51:47.298Z,3.90
2017-07-22T22:54:14.758Z,4.67
2017-07-22T22:56:42.214Z,3.73
2017-07-22T22:59:09.685Z,4.00
2017-07-22T23:01:37.901Z,4.50
2017-07-22T23:04:05.373Z,3.97
2017-07-22T23:06:32.848Z,4.07
2017-07-22T23:09:00.301Z,3.80
2017-07-22T23:11:27.741Z,8.07
2017-07-22T23:13:55.201Z,3.70
2017-07-22T23:16:22.669Z,3.73
2017-07-22T23:18:50.134Z,3.70
2017-07-22T23:21:17.579Z,3.90
2017-07-22T23:23:45.035Z,3.20
2017-07-22T23:26:12.594Z,3.40
2017-07-22T23:28:40.038Z,3.70
2017-07-22T23:31:07.493Z,3.30
2017-07-22T23:33:34.937Z,4.40
2017-07-22T23:36:02.393Z,3.17
2017-07-22T23:38:29.875Z,5.53
2017-07-22T23:40:57.325Z,3.77
2017-07-22T23:43:24.782Z,3.27
2017-07-22T23:45:52.253Z,4.00
2017-07-22T23:48:19.698Z,3.33
2017-07-22T23:50:47.149Z,3.13
2017-07-22T23:53:14.630Z,3.70
2017-07-22T23:55:42.073Z,3.90
2017-07-22T23:58:09.541Z,3.57
